ULLI/LED METAR and TAF weather

Enter ICAO airport designator
Station Type Date Time Source
ULLI METAR 2021/05/10 02:00 UTC NOAA

ULLI 100200Z 17003MPS 130V200 CAVOK 07/M01 Q1019 R10R/090060 NOSIG


Station Type Date Time Source
ULLI Decoded METAR 2021/05/10 02:00 UTC NOAA

St. Peterburg, Russia (ULLI) 59-58N 030-18E 6M
May 09, 2021 - 10:00 PM EDT / 2021.05.10 0200 UTC
Wind: from the S (170 degrees) at 7 MPH (6 KT) (direction variable):0
Visibility: greater than 7 mile(s):0
Temperature: 44 F (7 C)
Dew Point: 30 F (-1 C)
Relative Humidity: 56%
Pressure (altimeter): 30.09 in. Hg (1019 hPa)
ob: ULLI 100200Z 17003MPS 130V200 CAVOK 07/M01 Q1019 R10R/090060 NOSIG
cycle: 2

Station Type Date Time Source
ULLI TAF 2021/05/09 21:21 UTC NOAA

TAF TAF ULLI 092000Z 0921/1021 16003MPS 6000 SCT020
TEMPO 0923/1006 18006G13MPS -SHRA SCT010 BKN018CB
TEMPO 1006/1012 20007G14MPS 3100 -SHRA BKN006 BKN018CB
BECMG 1012/1014 20005G10MPS

Example: see airport list